Youngstown, NY (14174)

11:07 AM EDT on August 04, 2015 (GMT -0400)
the original Riverbend Farm | | Change Station
CLOSE
Current Station
Personal Weather Station
Location: Niagara On The Lake, Ontario
Elevation: 315 ft
Nearby Weather Stations

Elev 315 ft 43.21 °N, 79.06 °W | Updated 4 minutes ago

Mostly Cloudy
Mostly Cloudy
76.7 °F
Feels Like 78 °F
N
1.0
Wind Variable Wind from West
Gusts 2.0 mph

Today
High -- | Low -- °F
--% Chance of Precip.
Yesterday
High -- | Low -- °F
Precip. -- in
6:09 AM 8:34 PM
Waning Gibbous, 77% visible
Pressure 29.88 in
Visibility 10.0 miles
Clouds Few 6000 ft
Scattered Clouds 7500 ft
Scattered Clouds 11000 ft
Scattered Clouds 23000 ft
Heat Index 78 °F
Dew Point 64 °F
Humidity 66%
Rainfall 0.00 in
Snow Depth Not available.
UV 6 out of 12
Pollen 7.30 out of 12
Air Quality Not available.
Flu Activity Not available.
METAR KIAG 041453Z 21008KT 170V240 10SM FEW060 SCT075 SCT110 SCT230 22/15 A2989 RMK AO2 SLP118 CB DSNT SE MOV E 60000 T02220150 51007

More Conditions Fewer Conditions

Pressure 29.88 in
Visibility 10.0 miles
Clouds Few 6000 ft
Scattered Clouds 7500 ft
Scattered Clouds 11000 ft
Scattered Clouds 23000 ft
Heat Index 78 °F
Dew Point 64 °F
Humidity 66%
Rainfall 0.00 in
Snow Depth Not available.
UV 6 out of 12
Pollen 7.30 out of 12
Air Quality Not available.
Flu Activity Not available.
METAR KIAG 041453Z 21008KT 170V240 10SM FEW060 SCT075 SCT110 SCT230 22/15 A2989 RMK AO2 SLP118 CB DSNT SE MOV E 60000 T02220150 51007

More Conditions Fewer Conditions

10-Day Weather Forecast

×

Almanac

Astronomy

Aug. 04, 2015 Rise Set
Actual Time
Civil Twilight
Nautical Twilight
Astronomical Twilight
Moon
Length of Visible Light
Length of Day
Tomorrow will be .
, % of the Moon is Illuminated

Today's Extremes

State Highs State Lows

Community

WunderPhotos

Upload Photos

1,843,908 photos uploaded!

WunderBlogs® & News

Nearby

Air Quality

  Air Quality AQ Index Pollutant
Not available.

Snow Depth

Station Depth Elevation

Earthquake Activity

City Distance Mag. Time & Date
Minimum magnitude displayed is 2.5.

Coastal Water Temperatures

Place Temperature

Stations

Nearby Weather Stations

Station Location Temp. Windchill Dew Point Humidity Wind Precip. Elev Updated Type